Time;durP1;ratioP1;P1;durP2;ratioP2;P2;SDS_P1;SDS_P2;PMS_P1;PMS_P2;Temp;Humidity;BMP_temperature;BMP_pressure;BME280_temperature;BME280_humidity;BME280_pressure;Samples;Min_cycle;Max_cycle;Signal;HPM_P1;HPM_P2
2021/06/27 00:00:35;;;;;;;10.48;8.08;;;;;;;17.33;67.76;100809.02;1568577;88;25833;-77
2021/06/27 00:03:05;;;;;;;9.93;8.53;;;;;;;17.28;67.84;100804.80;1593322;88;25784;-76
2021/06/27 00:05:34;;;;;;;8.68;7.62;;;;;;;17.20;67.63;100809.67;1615808;88;27501;-76
2021/06/27 00:08:02;;;;;;;10.00;7.17;;;;;;;17.17;68.02;100812.30;1572706;88;26069;-77
2021/06/27 00:10:33;;;;;;;10.40;7.87;;;;;;;17.14;68.16;100803.81;1574847;89;25898;-77
2021/06/27 00:13:01;;;;;;;8.38;7.62;;;;;;;17.09;68.17;100802.30;1593463;88;26672;-76
2021/06/27 00:15:35;;;;;;;7.83;6.97;;;;;;;17.06;68.17;100804.11;1616028;87;25790;-76
2021/06/27 00:18:04;;;;;;;8.40;7.55;;;;;;;16.94;68.16;100801.30;1594083;88;27368;-76
2021/06/27 00:20:33;;;;;;;8.28;6.72;;;;;;;16.85;68.23;100804.82;1593773;88;25820;-76
2021/06/27 00:23:01;;;;;;;10.38;7.50;;;;;;;16.78;68.38;100808.13;1593625;88;25965;-77
2021/06/27 00:25:31;;;;;;;14.58;11.08;;;;;;;16.73;68.58;100809.83;1615772;88;25883;-76
2021/06/27 00:28:00;;;;;;;17.47;9.70;;;;;;;16.69;68.74;100814.86;1581060;86;25987;-76
2021/06/27 00:30:29;;;;;;;11.50;8.00;;;;;;;16.66;68.70;100815.81;1614809;88;27651;-76
2021/06/27 00:32:56;;;;;;;16.45;7.47;;;;;;;16.61;68.76;100813.80;1597687;88;25897;-76
2021/06/27 00:35:25;;;;;;;10.58;7.80;;;;;;;16.56;68.85;100816.84;1612809;88;25903;-76
2021/06/27 00:37:53;;;;;;;10.30;8.03;;;;;;;16.55;69.04;100818.70;1597721;86;25851;-77
2021/06/27 00:40:24;;;;;;;11.55;7.80;;;;;;;16.53;69.09;100822.16;1612729;87;25841;-76
2021/06/27 00:42:52;;;;;;;12.95;8.63;;;;;;;16.52;69.10;100821.87;1597772;88;27499;-76
2021/06/27 00:45:23;;;;;;;12.00;8.10;;;;;;;16.51;69.41;100827.51;1622139;88;26219;-77
2021/06/27 00:47:51;;;;;;;8.43;7.00;;;;;;;16.48;69.47;100827.90;1590546;88;26613;-76
2021/06/27 00:50:22;;;;;;;12.37;8.28;;;;;;;16.44;69.51;100825.34;1619143;88;26597;-77
2021/06/27 00:52:51;;;;;;;8.70;6.97;;;;;;;16.38;69.36;100824.31;1597479;88;26009;-76
2021/06/27 00:55:19;;;;;;;16.07;7.42;;;;;;;16.32;69.42;100823.01;1622048;87;27663;-76
2021/06/27 00:57:50;;;;;;;8.20;7.00;;;;;;;16.27;69.41;100826.91;1590831;88;25937;-76
2021/06/27 01:00:23;;;;;;;;;;;;;;;16.22;69.41;100824.86;1617635;87;25832;-77
2021/06/27 01:02:50;;;;;;;10.28;6.92;;;;;;;16.14;69.70;100818.38;1614331;87;25815;-76
2021/06/27 01:05:22;;;;;;;10.23;8.15;;;;;;;16.06;69.62;100818.09;1591348;88;25843;-76
2021/06/27 01:07:49;;;;;;;8.33;7.58;;;;;;;16.05;69.87;100816.96;1597977;88;27487;-76
2021/06/27 01:10:16;;;;;;;11.78;7.40;;;;;;;16.01;70.15;100821.98;1591417;88;25886;-76
2021/06/27 01:12:45;;;;;;;9.55;7.67;;;;;;;15.97;70.12;100818.03;1615051;87;25867;-76
2021/06/27 01:15:14;;;;;;;10.80;7.83;;;;;;;15.97;70.15;100818.58;1591346;88;26450;-76
2021/06/27 01:17:45;;;;;;;8.48;7.40;;;;;;;15.96;70.18;100833.11;1598059;88;26626;-76
2021/06/27 01:20:22;;;;;;;9.08;7.45;;;;;;;15.95;70.45;100825.52;1585336;88;27656;-76
2021/06/27 01:22:50;;;;;;;13.98;7.40;;;;;;;15.95;70.51;100821.47;1614267;87;26044;-76
2021/06/27 01:25:21;;;;;;;8.43;7.67;;;;;;;15.89;70.30;100824.20;1597777;88;25831;-76
2021/06/27 01:27:49;;;;;;;10.20;8.38;;;;;;;15.88;70.61;100823.41;1597940;88;25845;-76
2021/06/27 01:30:17;;;;;;;12.00;8.95;;;;;;;15.88;70.52;100816.65;1599711;88;25841;-77
2021/06/27 01:32:48;;;;;;;14.93;10.85;;;;;;;15.84;70.54;100811.89;1590989;88;27584;-76
2021/06/27 01:35:19;;;;;;;12.95;10.03;;;;;;;15.83;70.81;100817.80;1597659;88;26578;-76
2021/06/27 01:37:51;;;;;;;12.98;10.35;;;;;;;15.85;70.92;100816.23;1571110;87;25927;-76
2021/06/27 01:40:19;;;;;;;11.97;9.55;;;;;;;15.85;71.08;100820.28;1597090;88;25860;-76
2021/06/27 01:42:47;;;;;;;10.30;8.90;;;;;;;15.85;71.16;100821.63;1621900;86;25876;-76
2021/06/27 01:45:21;;;;;;;11.40;8.73;;;;;;;15.83;71.14;100829.96;1612689;88;28363;-76
2021/06/27 01:48:02;;;;;;;15.45;9.75;;;;;;;15.79;70.99;100830.60;1598001;88;25953;-76
2021/06/27 01:50:30;;;;;;;12.45;8.93;;;;;;;15.75;71.09;100821.27;1612810;88;25818;-76
2021/06/27 01:52:59;;;;;;;11.38;9.55;;;;;;;15.70;71.11;100827.31;1614896;87;26380;-76
2021/06/27 01:55:27;;;;;;;11.10;9.63;;;;;;;15.67;71.16;100826.92;1596003;88;25914;-76
2021/06/27 01:57:55;;;;;;;13.30;10.28;;;;;;;15.67;71.38;100826.92;1578695;88;27525;-76
2021/06/27 02:00:26;;;;;;;11.55;9.25;;;;;;;15.70;71.57;100823.78;1642427;86;25852;-76
2021/06/27 02:02:53;;;;;;;11.57;9.25;;;;;;;15.70;71.61;100830.02;1616770;88;25348;-76
2021/06/27 02:05:21;;;;;;;11.88;9.15;;;;;;;15.69;71.49;100824.33;1641608;86;25950;-77
2021/06/27 02:07:48;;;;;;;10.65;7.65;;;;;;;15.65;71.43;100824.45;1598389;88;25864;-76
2021/06/27 02:10:22;;;;;;;10.03;7.50;;;;;;;15.57;71.13;100830.61;1641730;87;28240;-76
2021/06/27 02:12:52;;;;;;;8.65;7.72;;;;;;;15.44;71.08;100828.76;1616591;88;25855;-76
2021/06/27 02:15:19;;;;;;;8.18;7.37;;;;;;;15.35;71.36;100830.02;1641919;87;25788;-76
2021/06/27 02:18:09;;;;;;;10.20;7.42;;;;;;;15.31;71.40;100826.90;1577123;88;26521;-76
2021/06/27 02:20:38;;;;;;;8.77;7.63;;;;;;;15.24;71.40;100834.72;1590383;88;25911;-76
2021/06/27 02:23:05;;;;;;;7.90;6.72;;;;;;;15.19;71.52;100840.75;1621508;86;27556;-76
2021/06/27 02:25:33;;;;;;;8.18;6.62;;;;;;;15.15;71.50;100842.20;1587659;89;25780;-76
2021/06/27 02:28:00;;;;;;;12.37;7.92;;;;;;;15.14;71.59;100840.53;1569382;88;26172;-76
2021/06/27 02:30:27;;;;;;;10.60;7.37;;;;;;;15.12;71.63;100839.92;1569851;88;25830;-76
2021/06/27 02:32:54;;;;;;;11.35;8.43;;;;;;;15.07;71.58;100837.05;1595797;89;25905;-76
2021/06/27 02:35:21;;;;;;;11.20;9.75;;;;;;;15.04;71.71;100832.56;1591163;88;27410;-76
2021/06/27 02:37:48;;;;;;;10.58;9.58;;;;;;;15.03;71.75;100835.80;1574472;89;25886;-75
2021/06/27 02:40:15;;;;;;;13.95;9.45;;;;;;;15.06;72.23;100834.53;1612900;88;26021;-76
2021/06/27 02:42:42;;;;;;;12.25;8.80;;;;;;;15.04;72.11;100827.17;1595990;89;25924;-76
2021/06/27 02:45:11;;;;;;;11.70;9.10;;;;;;;15.04;72.38;100826.66;1591298;88;26634;-76
2021/06/27 02:47:38;;;;;;;11.33;9.53;;;;;;;15.03;72.42;100827.72;1574605;89;28271;-76
2021/06/27 02:50:10;;;;;;;11.20;9.05;;;;;;;15.02;72.22;100829.25;1591402;88;25712;-76
2021/06/27 02:52:38;;;;;;;11.90;9.48;;;;;;;14.99;72.23;100828.34;1595903;89;25805;-76
2021/06/27 02:55:08;;;;;;;16.75;11.43;;;;;;;14.98;72.41;100825.31;1591614;88;26381;-76
2021/06/27 02:57:35;;;;;;;12.82;10.08;;;;;;;14.99;72.39;100830.49;1551206;91;25927;-76
2021/06/27 03:00:13;;;;;;;15.25;9.78;;;;;;;15.00;72.76;100826.77;1644157;86;27470;-76
2021/06/27 03:02:41;;;;;;;10.85;9.20;;;;;;;14.99;72.51;100832.39;1620434;87;25843;-76
2021/06/27 03:05:10;;;;;;;10.63;8.63;;;;;;;14.96;72.52;100834.98;1600210;88;25780;-76
2021/06/27 03:07:38;;;;;;;9.63;8.73;;;;;;;14.93;72.55;100829.15;1600070;88;26027;-76
2021/06/27 03:10:10;;;;;;;9.93;8.65;;;;;;;14.89;72.67;100831.96;1587790;87;26600;-76
2021/06/27 03:12:42;;;;;;;11.20;9.58;;;;;;;14.89;72.79;100831.96;1604057;88;27418;-76
2021/06/27 03:15:12;;;;;;;9.20;7.58;;;;;;;14.91;73.03;100834.77;1599897;88;25972;-76
2021/06/27 03:17:40;;;;;;;12.85;7.80;;;;;;;14.95;73.11;100831.15;1599982;87;25351;-76
2021/06/27 03:20:10;;;;;;;7.55;6.75;;;;;;;14.99;73.05;100836.43;1579881;88;25888;-76
2021/06/27 03:22:37;;;;;;;10.98;6.83;;;;;;;15.03;73.01;100834.45;1622208;86;25857;-76
2021/06/27 03:25:07;;;;;;;7.97;7.17;;;;;;;15.08;73.07;100836.50;1600158;88;27441;-76
2021/06/27 03:27:35;;;;;;;9.55;8.45;;;;;;;15.12;73.01;100831.83;1600676;87;25864;-76
2021/06/27 03:30:05;;;;;;;11.15;8.05;;;;;;;15.18;73.12;100836.38;1610767;88;25851;-76
2021/06/27 03:32:32;;;;;;;10.30;8.23;;;;;;;15.25;73.14;100830.45;1579336;88;26460;-76
2021/06/27 03:34:59;;;;;;;10.45;7.60;;;;;;;15.34;73.09;100829.70;1620552;87;25797;-76
2021/06/27 03:37:26;;;;;;;13.58;8.23;;;;;;;15.43;73.33;100825.25;1620664;88;28327;-76
2021/06/27 03:39:53;;;;;;;13.20;9.58;;;;;;;15.55;73.45;100817.30;1600190;88;25841;-76
2021/06/27 03:42:21;;;;;;;13.68;10.03;;;;;;;15.66;73.60;100822.04;1599538;88;25910;-76
2021/06/27 03:44:48;;;;;;;13.10;10.53;;;;;;;15.77;73.89;100820.53;1620588;88;26212;-76
2021/06/27 03:47:15;;;;;;;13.15;11.60;;;;;;;15.85;73.95;100818.93;1620788;87;25815;-76
2021/06/27 03:49:42;;;;;;;12.23;8.48;;;;;;;15.93;74.17;100820.05;1579522;88;27573;-76
2021/06/27 03:52:09;;;;;;;10.28;8.25;;;;;;;15.98;74.23;100811.59;1579175;88;26551;-76
2021/06/27 03:54:36;;;;;;;9.05;8.03;;;;;;;16.00;73.88;100812.72;1620669;88;25820;-76
2021/06/27 03:57:04;;;;;;;9.90;7.50;;;;;;;15.99;73.94;100806.52;1620488;87;25839;-76
2021/06/27 03:59:32;;;;;;;13.35;9.18;;;;;;;16.04;74.07;100812.59;1599913;88;25945;-76
2021/06/27 04:01:59;;;;;;;11.35;10.10;;;;;;;16.09;74.42;100805.50;1579310;88;27627;-76
2021/06/27 04:04:26;;;;;;;13.70;10.68;;;;;;;16.20;75.00;100815.63;1615715;88;25353;-76
2021/06/27 04:06:53;;;;;;;14.87;10.80;;;;;;;16.35;75.34;100815.31;1615847;88;26655;-76
2021/06/27 04:09:20;;;;;;;13.20;10.95;;;;;;;16.51;75.51;100809.93;1593621;88;25928;-76
2021/06/27 04:11:47;;;;;;;11.45;9.78;;;;;;;16.68;75.58;100809.14;1557540;87;25902;-76
2021/06/27 04:14:14;;;;;;;14.43;9.38;;;;;;;16.82;75.37;100807.98;1617150;87;27595;-76
2021/06/27 04:16:41;;;;;;;11.15;9.50;;;;;;;16.93;75.44;100807.78;1625686;87;25797;-76
2021/06/27 04:19:08;;;;;;;11.80;9.10;;;;;;;17.04;75.48;100803.51;1573146;88;26572;-76
2021/06/27 04:21:35;;;;;;;10.40;9.40;;;;;;;17.12;75.45;100797.28;1572830;88;26065;-76
2021/06/27 04:24:02;;;;;;;12.75;9.18;;;;;;;17.22;75.42;100789.97;1615702;88;25900;-76
2021/06/27 04:26:30;;;;;;;11.63;9.48;;;;;;;17.31;75.30;100786.75;1615906;88;27570;-76
2021/06/27 04:28:57;;;;;;;11.08;9.98;;;;;;;17.40;75.36;100781.34;1572473;88;25352;-76
2021/06/27 04:31:24;;;;;;;11.48;9.45;;;;;;;17.47;75.34;100778.00;1578381;87;25842;-76
2021/06/27 04:33:51;;;;;;;12.03;9.50;;;;;;;17.52;75.23;100782.25;1627167;87;25934;-76
2021/06/27 04:36:18;;;;;;;11.65;10.50;;;;;;;17.60;75.27;100786.52;1622851;87;26058;-77
2021/06/27 04:38:45;;;;;;;15.70;10.75;;;;;;;17.67;75.21;100784.05;1598353;87;27664;-77
2021/06/27 04:41:12;;;;;;;13.45;11.35;;;;;;;17.73;75.34;100780.13;1627273;87;25409;-76
2021/06/27 04:43:39;;;;;;;11.78;10.32;;;;;;;17.78;75.27;100774.31;1595915;88;25821;-76
2021/06/27 04:46:06;;;;;;;14.65;11.05;;;;;;;17.86;75.32;100778.57;1641878;87;26485;-77
2021/06/27 04:48:33;;;;;;;11.25;10.10;;;;;;;17.90;75.36;100778.44;1597986;86;25773;-77
2021/06/27 04:51:00;;;;;;;11.57;10.30;;;;;;;17.94;75.31;100776.36;1617791;87;27990;-77
2021/06/27 04:53:28;;;;;;;13.72;10.20;;;;;;;18.00;75.49;100782.24;1641864;85;25811;-77
2021/06/27 04:55:58;;;;;;;11.50;10.40;;;;;;;18.06;75.53;100781.31;1642098;87;25847;-76
2021/06/27 04:58:23;;;;;;;12.43;10.48;;;;;;;18.14;75.63;100782.33;1599146;87;25867;-77
2021/06/27 05:00:50;;;;;;;13.00;10.68;;;;;;;18.22;75.78;100782.55;1619178;87;25801;-77
2021/06/27 05:03:17;;;;;;;12.43;10.88;;;;;;;18.31;75.59;100784.67;1641175;85;27804;-77
2021/06/27 05:05:44;;;;;;;12.37;10.10;;;;;;;18.39;75.45;100782.97;1648313;86;25800;-77
2021/06/27 05:08:11;;;;;;;15.30;9.55;;;;;;;18.48;75.52;100785.69;1572630;88;25802;-77
2021/06/27 05:10:38;;;;;;;11.38;10.15;;;;;;;18.59;75.70;100781.33;1541877;89;25803;-77
2021/06/27 05:13:06;;;;;;;12.35;10.40;;;;;;;18.69;75.25;100780.77;1641264;85;26549;-77
2021/06/27 05:15:33;;;;;;;11.43;9.83;;;;;;;18.77;75.50;100774.45;1601005;86;28290;-77
2021/06/27 05:18:00;;;;;;;16.60;10.10;;;;;;;18.89;75.25;100777.15;1583942;87;25918;-77
2021/06/27 05:20:27;;;;;;;11.12;9.55;;;;;;;18.97;74.79;100780.33;1581098;86;25921;-76
2021/06/27 05:22:54;;;;;;;10.32;9.33;;;;;;;19.07;74.81;100782.46;1616326;87;26510;-77
2021/06/27 05:25:21;;;;;;;9.93;8.93;;;;;;;19.15;74.60;100780.20;1597104;87;25948;-77
2021/06/27 05:27:48;;;;;;;11.35;8.28;;;;;;;19.26;74.12;100779.90;1590321;87;27524;-77
2021/06/27 05:30:16;;;;;;;11.10;9.05;;;;;;;19.36;73.91;100782.85;1554809;88;25929;-75
2021/06/27 05:32:43;;;;;;;10.98;8.83;;;;;;;19.46;73.93;100776.27;1626554;87;25939;-76
2021/06/27 05:35:11;;;;;;;11.70;8.43;;;;;;;19.53;73.39;100783.75;1621723;88;26449;-76
2021/06/27 05:37:39;;;;;;;10.28;8.00;;;;;;;19.65;73.77;100780.45;1589143;88;26022;-76
2021/06/27 05:40:08;;;;;;;8.75;7.95;;;;;;;19.77;73.49;100782.62;1561866;88;27406;-76
2021/06/27 05:42:35;;;;;;;11.33;8.70;;;;;;;19.85;72.94;100778.14;1611799;87;25852;-77
2021/06/27 05:45:02;;;;;;;11.05;8.48;;;;;;;19.96;73.10;100781.88;1588745;88;25809;-76
2021/06/27 05:47:29;;;;;;;11.45;8.65;;;;;;;20.02;72.71;100785.53;1582005;88;26200;-76
2021/06/27 05:49:56;;;;;;;10.95;8.15;;;;;;;20.11;72.64;100782.16;1548341;88;26678;-75
2021/06/27 05:52:24;;;;;;;8.93;8.00;;;;;;;20.22;72.58;100781.31;1611877;87;27538;-76
2021/06/27 05:54:51;;;;;;;10.23;7.85;;;;;;;20.36;72.69;100775.83;1613751;87;26802;-76
2021/06/27 05:57:18;;;;;;;9.73;7.55;;;;;;;20.49;71.39;100779.59;1596468;88;26279;-76
2021/06/27 05:59:45;;;;;;;8.65;7.75;;;;;;;20.55;70.06;100782.67;1571007;87;26450;-76
2021/06/27 06:02:12;;;;;;;10.53;8.68;;;;;;;20.59;70.67;100780.30;1610654;88;26525;-76
2021/06/27 06:04:39;;;;;;;11.88;7.75;;;;;;;20.71;70.97;100784.59;1615878;86;27301;-76
2021/06/27 06:07:06;;;;;;;10.98;8.18;;;;;;;20.81;70.22;100788.55;1583999;87;26157;-76
2021/06/27 06:09:33;;;;;;;9.00;8.05;;;;;;;20.92;69.57;100782.98;1575600;88;25935;-76
2021/06/27 06:12:00;;;;;;;13.00;8.18;;;;;;;21.00;69.30;100794.01;1633670;86;26337;-75
2021/06/27 06:14:27;;;;;;;9.38;8.10;;;;;;;21.08;69.33;100794.97;1628409;86;25882;-76
2021/06/27 06:16:55;;;;;;;8.58;7.67;;;;;;;21.22;69.89;100789.43;1557441;89;27668;-76
2021/06/27 06:19:23;;;;;;;10.70;8.48;;;;;;;21.34;69.04;100786.08;1578853;88;25828;-77
2021/06/27 06:21:51;;;;;;;9.65;8.08;;;;;;;21.39;68.81;100788.31;1621193;86;25937;-76
2021/06/27 06:24:19;;;;;;;8.63;7.62;;;;;;;21.45;68.17;100787.83;1609014;89;26546;-76
2021/06/27 06:26:47;;;;;;;8.13;7.30;;;;;;;21.51;68.00;100793.09;1572685;88;25863;-76
2021/06/27 06:29:14;;;;;;;8.70;7.78;;;;;;;21.58;68.52;100787.45;1578903;88;27119;-76
2021/06/27 06:31:42;;;;;;;9.03;8.03;;;;;;;21.72;68.67;100800.16;1619216;87;25891;-76
2021/06/27 06:34:09;;;;;;;10.88;8.33;;;;;;;21.82;67.85;100797.55;1608924;88;25764;-76
2021/06/27 06:36:36;;;;;;;9.15;8.18;;;;;;;21.87;67.51;100791.66;1568444;88;25933;-77
2021/06/27 06:39:05;;;;;;;12.70;8.18;;;;;;;21.96;67.52;100791.46;1586875;88;25876;-77
2021/06/27 06:41:32;;;;;;;9.88;7.53;;;;;;;22.04;67.17;100794.28;1610963;87;28333;-76
2021/06/27 06:43:59;;;;;;;12.80;8.83;;;;;;;22.09;67.05;100783.44;1596660;88;25761;-76
2021/06/27 06:46:26;;;;;;;10.18;7.72;;;;;;;22.17;66.48;100787.88;1645322;85;25905;-77
2021/06/27 06:48:56;;;;;;;8.85;7.60;;;;;;;22.24;66.91;100784.38;1605167;86;25844;-76
2021/06/27 06:51:22;;;;;;;10.15;8.70;;;;;;;22.31;66.76;100785.53;1632365;86;25856;-77
2021/06/27 06:53:50;;;;;;;9.45;7.80;;;;;;;22.36;65.98;100791.05;1610275;87;28287;-76
2021/06/27 06:56:17;;;;;;;10.75;8.60;;;;;;;22.40;65.56;100785.35;1592216;88;25909;-76
2021/06/27 06:58:44;;;;;;;10.38;7.97;;;;;;;22.41;64.87;100786.98;1604321;86;25918;-77
2021/06/27 07:01:11;;;;;;;8.60;7.58;;;;;;;22.43;65.20;100778.02;1571009;87;25927;-77
2021/06/27 07:03:38;;;;;;;8.78;7.33;;;;;;;22.50;64.88;100787.33;1620799;86;26422;-76
2021/06/27 07:06:05;;;;;;;8.98;8.08;;;;;;;22.55;64.11;100780.56;1589975;88;27585;-76
2021/06/27 07:08:32;;;;;;;13.30;9.68;;;;;;;22.62;63.79;100779.84;1594432;88;25955;-76
2021/06/27 07:11:00;;;;;;;10.65;7.47;;;;;;;22.63;64.04;100780.09;1632767;86;25755;-76
2021/06/27 07:13:27;;;;;;;8.40;7.00;;;;;;;22.72;64.59;100779.37;1623901;86;25878;-76
2021/06/27 07:15:54;;;;;;;7.97;6.65;;;;;;;22.83;63.71;100781.09;1603117;87;25851;-77
2021/06/27 07:18:21;;;;;;;10.78;6.55;;;;;;;22.88;63.69;100783.84;1569432;88;27746;-76
2021/06/27 07:20:49;;;;;;;8.13;6.55;;;;;;;22.98;63.84;100789.92;1593039;88;26671;-76
2021/06/27 07:23:18;;;;;;;7.25;6.03;;;;;;;23.03;62.60;100784.50;1624903;87;25797;-76
2021/06/27 07:25:44;;;;;;;6.45;5.70;;;;;;;23.03;59.51;100788.61;1594018;87;26083;-76
2021/06/27 07:28:12;;;;;;;7.25;6.55;;;;;;;22.98;60.22;100793.48;1587169;87;25925;-76
2021/06/27 07:30:39;;;;;;;9.90;6.42;;;;;;;23.03;59.57;100789.97;1604657;87;27633;-76
2021/06/27 07:33:06;;;;;;;7.67;6.45;;;;;;;23.10;59.58;100793.27;1613084;87;26007;-79
2021/06/27 07:35:33;;;;;;;7.72;6.05;;;;;;;23.16;60.16;100792.20;1599223;88;25893;-76
2021/06/27 07:38:00;;;;;;;6.12;5.53;;;;;;;23.25;60.02;100790.63;1589867;88;25869;-76
2021/06/27 07:40:28;;;;;;;8.98;5.92;;;;;;;23.36;60.61;100794.27;1590332;87;26028;-78
2021/06/27 07:42:55;;;;;;;6.03;5.35;;;;;;;23.49;61.08;100792.41;1624321;86;27489;-78
2021/06/27 07:45:22;;;;;;;5.78;5.17;;;;;;;23.55;60.39;100790.80;1605331;88;25977;-77
2021/06/27 07:47:49;;;;;;;5.30;4.87;;;;;;;23.59;57.39;100787.80;1570334;88;25841;-76
2021/06/27 07:50:16;;;;;;;4.55;4.15;;;;;;;23.58;57.15;100786.72;1591138;88;26111;-79
2021/06/27 07:52:43;;;;;;;7.62;4.22;;;;;;;23.60;54.51;100781.27;1612953;87;25944;-77
2021/06/27 07:55:10;;;;;;;4.67;4.17;;;;;;;23.58;54.48;100788.09;1591150;88;27549;-79
2021/06/27 07:57:38;;;;;;;4.80;4.25;;;;;;;23.57;54.79;100780.42;1590965;88;25878;-79
2021/06/27 08:00:07;;;;;;;5.33;4.78;;;;;;;23.62;54.58;100776.89;1593478;87;26300;-78
2021/06/27 08:02:37;;;;;;;6.80;4.62;;;;;;;23.60;54.95;100784.53;1617029;87;25928;-78
2021/06/27 08:05:06;;;;;;;5.37;4.15;;;;;;;23.64;55.40;100782.91;1564552;89;25889;-77
2021/06/27 08:07:33;;;;;;;4.70;4.03;;;;;;;23.73;55.18;100775.83;1579770;88;27507;-77
2021/06/27 08:10:01;;;;;;;5.20;4.22;;;;;;;23.84;54.33;100780.79;1619436;88;26463;-77
2021/06/27 08:12:28;;;;;;;4.50;4.08;;;;;;;23.98;55.15;100781.91;1622881;86;25976;-76
2021/06/27 08:14:55;;;;;;;4.62;4.10;;;;;;;24.14;52.70;100780.89;1589757;88;25853;-76
2021/06/27 08:17:22;;;;;;;3.90;3.30;;;;;;;24.15;53.60;100777.04;1613614;87;25877;-76
2021/06/27 08:19:49;;;;;;;6.05;3.77;;;;;;;24.13;52.48;100781.42;1580253;87;28429;-76
2021/06/27 08:22:16;;;;;;;6.10;3.90;;;;;;;24.12;52.86;100785.81;1619515;87;25862;-76
2021/06/27 08:24:45;;;;;;;4.78;3.22;;;;;;;24.17;52.41;100777.05;1588005;87;26371;-76
2021/06/27 08:27:13;;;;;;;2.87;2.67;;;;;;;24.23;51.38;100783.38;1580454;87;25932;-77
2021/06/27 08:29:40;;;;;;;4.12;2.50;;;;;;;24.20;50.04;100780.63;1617079;86;25883;-77
2021/06/27 08:32:08;;;;;;;3.95;2.85;;;;;;;24.24;50.76;100778.16;1628474;86;27480;-77
2021/06/27 08:34:35;;;;;;;4.87;3.25;;;;;;;24.29;49.35;100772.70;1599169;88;25799;-79
2021/06/27 08:37:02;;;;;;;4.45;2.95;;;;;;;24.28;49.51;100775.14;1584782;89;25951;-78
2021/06/27 08:39:29;;;;;;;3.45;2.90;;;;;;;24.28;49.29;100782.81;1605392;88;26441;-77
2021/06/27 08:41:56;;;;;;;4.50;3.00;;;;;;;24.34;48.70;100780.89;1619727;87;26435;-77
2021/06/27 08:44:24;;;;;;;2.65;2.45;;;;;;;24.41;48.63;100777.34;1599439;88;28925;-77
2021/06/27 08:46:51;;;;;;;4.72;2.30;;;;;;;24.44;48.08;100776.81;1573936;87;25904;-77
2021/06/27 08:49:21;;;;;;;4.35;2.80;;;;;;;24.44;46.09;100778.98;1607780;87;26433;-77
2021/06/27 08:51:48;;;;;;;4.83;2.37;;;;;;;24.47;47.96;100772.14;1608606;87;25868;-77
2021/06/27 08:54:15;;;;;;;3.62;2.40;;;;;;;24.49;45.01;100776.25;1585243;88;25999;-78
2021/06/27 08:56:42;;;;;;;5.08;2.40;;;;;;;24.48;46.73;100773.26;1558036;88;28354;-77
2021/06/27 08:59:10;;;;;;;4.33;2.40;;;;;;;24.59;47.23;100782.83;1599219;86;25776;-76
2021/06/27 09:04:18;;;;;;;5.72;2.80;;;;;;;24.84;48.33;100777.35;1787067;78;25632;-78
2021/06/27 09:06:45;;;;;;;7.12;3.70;;;;;;;24.95;47.17;100776.24;1698231;82;25770;-77
2021/06/27 09:09:20;;;;;;;5.83;2.67;;;;;;;25.05;47.28;100774.30;1712269;82;27628;-77
2021/06/27 09:12:04;;;;;;;2.20;2.00;;;;;;;25.02;44.92;100780.91;1682524;82;25994;-77
2021/06/27 09:14:40;;;;;;;3.17;2.77;;;;;;;24.90;43.71;100778.44;1646769;82;25868;-79
2021/06/27 09:17:22;;;;;;;2.90;2.47;;;;;;;24.68;43.96;100781.19;1710333;82;26008;-76
2021/06/27 09:19:57;;;;;;;4.33;2.35;;;;;;;24.68;45.52;100776.51;1707273;82;25800;-75
2021/06/27 09:22:29;;;;;;;2.42;2.02;;;;;;;24.76;45.43;100777.92;1703325;82;27465;-78
2021/06/27 09:25:19;;;;;;;2.15;1.92;;;;;;;24.79;44.13;100776.81;1687884;82;25883;-75
2021/06/27 09:28:11;;;;;;;2.67;2.10;;;;;;;24.84;44.11;100772.70;1703454;82;26563;-76
2021/06/27 09:30:45;;;;;;;2.75;2.12;;;;;;;24.98;45.34;100773.77;1710494;82;25991;-78
2021/06/27 09:33:16;;;;;;;3.80;2.12;;;;;;;25.15;45.80;100770.16;1664195;82;25788;-76
2021/06/27 09:35:50;;;;;;;3.20;2.30;;;;;;;25.22;43.29;100771.23;1659335;82;26965;-76
2021/06/27 09:38:31;;;;;;;2.50;2.30;;;;;;;25.12;43.09;100773.47;1707157;82;25912;-77
2021/06/27 09:41:03;;;;;;;2.40;2.20;;;;;;;25.10;45.08;100772.10;1714294;82;34952;-77
2021/06/27 09:43:34;;;;;;;2.87;2.30;;;;;;;25.20;44.56;100767.95;1690690;82;26058;-78
2021/06/27 09:46:14;;;;;;;2.58;2.37;;;;;;;25.21;43.66;100764.92;1685008;82;25828;-77
2021/06/27 09:48:56;;;;;;;3.72;1.80;;;;;;;25.20;44.03;100769.32;1711456;82;27471;-77
2021/06/27 09:51:29;;;;;;;6.17;1.67;;;;;;;25.21;42.10;100766.87;1710940;82;26606;-77
2021/06/27 09:53:57;;;;;;;3.08;2.10;;;;;;;25.16;40.05;100766.88;1666015;82;25915;-77
2021/06/27 09:56:25;;;;;;;1.95;1.82;;;;;;;25.11;42.67;100762.77;1663657;82;26458;-77
2021/06/27 09:59:02;;;;;;;2.02;1.80;;;;;;;25.19;44.19;100760.27;1709788;82;25867;-77
2021/06/27 10:01:32;;;;;;;2.37;1.98;;;;;;;25.26;43.68;100756.69;1717850;82;27426;-77
2021/06/27 10:04:03;;;;;;;4.67;1.92;;;;;;;25.38;43.72;100759.67;1645604;85;26635;-77
2021/06/27 10:06:33;;;;;;;2.30;1.98;;;;;;;25.49;43.75;100754.45;1638106;84;25901;-77
2021/06/27 10:09:18;;;;;;;2.27;2.08;;;;;;;25.48;43.41;100752.25;1683206;84;25899;-77
2021/06/27 10:12:13;;;;;;;2.45;1.72;;;;;;;25.43;43.17;100748.14;1678300;84;26155;-77
2021/06/27 10:14:48;;;;;;;3.45;2.08;;;;;;;25.28;41.79;100756.41;1657395;84;27497;-77
2021/06/27 10:17:15;;;;;;;3.52;2.00;;;;;;;25.17;43.42;100758.36;1657125;84;26189;-77
2021/06/27 10:19:42;;;;;;;2.20;1.90;;;;;;;25.16;42.21;100751.25;1678786;84;25899;-77
2021/06/27 10:22:09;;;;;;;3.45;1.95;;;;;;;25.18;42.91;100744.11;1680877;84;25891;-77
2021/06/27 10:24:37;;;;;;;4.40;1.82;;;;;;;25.19;42.66;100754.78;1649629;85;25937;-78
2021/06/27 10:27:06;;;;;;;2.08;1.80;;;;;;;25.31;43.06;100755.03;1618289;84;27570;-77
2021/06/27 10:29:41;;;;;;;2.05;1.90;;;;;;;25.43;42.90;100758.32;1683361;84;25662;-77
2021/06/27 10:32:09;;;;;;;1.98;1.77;;;;;;;25.53;42.17;100760.47;1677612;84;25922;-77
2021/06/27 10:34:37;;;;;;;3.45;2.05;;;;;;;25.62;43.05;100757.95;1661109;84;25650;-78
2021/06/27 10:37:33;;;;;;;2.35;2.00;;;;;;;25.71;43.16;100752.95;1672297;84;26566;-77
2021/06/27 10:40:08;;;;;;;4.78;2.08;;;;;;;25.67;41.90;100751.05;1682295;84;28577;-77
2021/06/27 10:42:58;;;;;;;2.35;2.10;;;;;;;25.69;41.30;100754.33;1677879;84;25327;-77
2021/06/27 10:45:30;;;;;;;3.87;2.08;;;;;;;25.72;41.11;100750.49;1634869;84;25815;-77
2021/06/27 10:47:57;;;;;;;2.22;2.10;;;;;;;25.76;42.06;100745.25;1680466;84;25348;-76
2021/06/27 10:50:35;;;;;;;2.67;1.82;;;;;;;25.78;40.63;100741.66;1684885;84;25668;-77
2021/06/27 10:53:02;;;;;;;4.92;1.95;;;;;;;25.76;40.46;100746.62;1668284;84;27463;-78
2021/06/27 10:55:41;;;;;;;2.55;2.20;;;;;;;25.76;41.29;100739.76;1657077;84;25889;-78
2021/06/27 10:58:19;;;;;;;2.62;1.82;;;;;;;25.78;39.79;100734.26;1646747;84;25890;-77
2021/06/27 11:00:57;;;;;;;4.10;2.20;;;;;;;25.80;40.34;100742.20;1681468;84;25828;-77
2021/06/27 11:03:30;;;;;;;4.45;2.40;;;;;;;25.79;40.12;100748.23;1691834;83;25956;-77
2021/06/27 11:06:01;;;;;;;3.42;2.37;;;;;;;25.76;40.22;100743.33;1696207;83;27510;-77
2021/06/27 11:08:36;;;;;;;3.58;2.05;;;;;;;25.75;38.94;100743.59;1634303;83;26541;-77
2021/06/27 11:11:17;;;;;;;2.92;2.08;;;;;;;25.68;39.36;100742.56;1689711;83;25744;-77
2021/06/27 11:14:05;;;;;;;2.30;2.10;;;;;;;25.75;39.48;100733.98;1693599;84;25844;-77
2021/06/27 11:16:32;;;;;;;3.77;2.35;;;;;;;25.79;39.17;100735.09;1655062;83;26540;-77
2021/06/27 11:18:59;;;;;;;2.60;2.27;;;;;;;25.82;39.50;100733.95;1677245;83;27349;-78
2021/06/27 11:21:37;;;;;;;2.72;2.10;;;;;;;25.92;39.53;100727.56;1694925;83;25995;-77
2021/06/27 11:24:06;;;;;;;3.27;1.98;;;;;;;25.92;37.60;100741.29;1693082;84;25855;-77
2021/06/27 11:26:49;;;;;;;3.95;2.30;;;;;;;25.87;38.31;100742.72;1641458;83;25889;-77
2021/06/27 11:29:27;;;;;;;4.30;2.27;;;;;;;25.91;38.52;100743.78;1635661;84;25872;-78
2021/06/27 11:32:09;;;;;;;5.20;2.60;;;;;;;25.95;39.16;100737.45;1659403;84;27655;-78
2021/06/27 11:34:38;;;;;;;2.40;2.10;;;;;;;26.02;39.73;100740.66;1681071;84;25818;-77